Time;durP1;ratioP1;P1;durP2;ratioP2;P2;SDS_P1;SDS_P2;PMS_P1;PMS_P2;Temp;Humidity;BMP_temperature;BMP_pressure;BME280_temperature;BME280_humidity;BME280_pressure;Samples;Min_cycle;Max_cycle;Signal;HPM_P1;HPM_P2
2023/07/16 00:02:21;;;;;;;5.78;2.05;;;;;;;16.89;100.00;99634.53;5052216;28;20049;-52
2023/07/16 00:04:46;;;;;;;2.72;1.08;;;;;;;16.89;100.00;99642.56;5066689;28;20105;-58
2023/07/16 00:07:11;;;;;;;3.15;0.10;;;;;;;16.81;100.00;99634.19;5056616;28;20534;-52
2023/07/16 00:09:37;;;;;;;0.98;0.40;;;;;;;16.79;100.00;99645.94;5051764;28;20037;-50
2023/07/16 00:12:03;;;;;;;5.20;0.47;;;;;;;16.87;100.00;99649.22;5055799;28;20034;-56
2023/07/16 00:14:28;;;;;;;4.10;0.93;;;;;;;16.87;100.00;99651.91;5060611;28;20057;-51
2023/07/16 00:16:53;;;;;;;3.38;0.38;;;;;;;16.89;100.00;99657.81;5058124;28;20035;-53
2023/07/16 00:19:19;;;;;;;2.88;0.22;;;;;;;16.78;100.00;99655.03;5047652;28;20107;-53
2023/07/16 00:21:44;;;;;;;2.83;0.40;;;;;;;16.79;100.00;99667.34;5042587;28;20029;-55
2023/07/16 00:24:09;;;;;;;2.35;0.40;;;;;;;16.86;100.00;99666.38;5053910;28;20025;-50
2023/07/16 00:26:34;;;;;;;6.63;0.30;;;;;;;16.87;100.00;99659.94;5050712;28;20420;-50
2023/07/16 00:29:00;;;;;;;3.58;0.40;;;;;;;16.87;100.00;99665.28;5040317;28;20033;-60
2023/07/16 00:31:25;;;;;;;1.20;0.85;;;;;;;16.63;100.00;99664.75;5048594;28;20043;-51
2023/07/16 00:33:50;;;;;;;3.95;0.20;;;;;;;16.65;100.00;99666.09;5045819;28;20116;-53
2023/07/16 00:36:16;;;;;;;1.55;0.30;;;;;;;16.75;100.00;99658.19;5045516;28;20032;-50
2023/07/16 00:38:42;;;;;;;5.63;0.70;;;;;;;16.60;100.00;99658.03;5049767;28;20590;-52
2023/07/16 00:41:07;;;;;;;4.00;0.30;;;;;;;16.51;100.00;99667.53;5052203;28;20048;-59
2023/07/16 00:43:33;;;;;;;5.82;0.30;;;;;;;16.47;100.00;99682.47;5051596;28;20056;-62
2023/07/16 00:45:58;;;;;;;5.25;0.28;;;;;;;16.50;100.00;99672.09;5052068;28;20028;-47
2023/07/16 00:48:24;;;;;;;2.45;0.57;;;;;;;16.44;100.00;99672.25;5052558;28;20036;-56
2023/07/16 00:50:52;;;;;;;4.28;1.08;;;;;;;16.48;100.00;99665.38;5046706;28;20760;-55
2023/07/16 00:53:17;;;;;;;5.05;0.38;;;;;;;16.41;100.00;99672.75;5057797;28;20028;-52
2023/07/16 00:55:43;;;;;;;10.13;0.95;;;;;;;16.34;100.00;99672.94;5046611;28;20540;-53
2023/07/16 00:58:08;;;;;;;1.95;0.47;;;;;;;16.42;100.00;99675.19;5041434;28;20040;-55
2023/07/16 01:00:36;;;;;;;2.75;0.50;;;;;;;16.41;100.00;99681.59;5050859;28;20473;-51
2023/07/16 01:03:02;;;;;;;4.30;0.15;;;;;;;16.34;100.00;99680.97;5051459;28;20053;-56
2023/07/16 01:05:36;;;;;;;5.70;0.30;;;;;;;16.30;100.00;99687.88;5040820;28;20052;-49
2023/07/16 01:08:06;;;;;;;6.88;0.75;;;;;;;16.22;100.00;99694.47;5054550;28;20036;-58
2023/07/16 01:10:32;;;;;;;1.10;0.15;;;;;;;16.28;100.00;99685.44;5049858;28;20744;-56
2023/07/16 01:12:58;;;;;;;8.93;1.25;;;;;;;16.20;100.00;99687.75;5047881;28;20028;-48
2023/07/16 01:15:24;;;;;;;5.95;0.85;;;;;;;16.13;100.00;99687.91;5042353;28;20029;-54
2023/07/16 01:17:49;;;;;;;9.50;1.27;;;;;;;16.13;100.00;99699.44;5053779;28;20025;-61
2023/07/16 01:20:14;;;;;;;8.73;0.88;;;;;;;16.13;100.00;99694.09;5050540;28;20110;-49
2023/07/16 01:23:06;;;;;;;4.35;1.00;;;;;;;16.18;100.00;99701.34;5046714;28;20102;-52
2023/07/16 01:25:56;;;;;;;9.35;1.05;;;;;;;16.12;100.00;99702.34;5063421;28;20036;-59
2023/07/16 01:28:36;;;;;;;4.00;1.27;;;;;;;16.12;100.00;99703.16;5052582;28;20036;-46
2023/07/16 01:31:01;;;;;;;2.85;0.20;;;;;;;16.11;100.00;99706.09;5045769;28;20055;-51
2023/07/16 01:33:27;;;;;;;4.35;0.60;;;;;;;16.03;100.00;99707.31;5053170;28;20033;-64
2023/07/16 01:35:54;;;;;;;8.13;1.30;;;;;;;16.07;100.00;99708.44;5049596;28;20032;-64
2023/07/16 01:38:20;;;;;;;6.95;1.35;;;;;;;16.08;100.00;99711.91;5053251;28;20021;-51
2023/07/16 01:40:46;;;;;;;2.78;0.68;;;;;;;16.12;100.00;99713.06;5059381;28;20029;-48
2023/07/16 01:43:12;;;;;;;6.20;3.22;;;;;;;16.12;100.00;99708.50;5064567;28;20047;-58
2023/07/16 01:45:38;;;;;;;11.88;1.55;;;;;;;16.16;100.00;99718.69;5063056;28;20032;-52
2023/07/16 01:48:14;;;;;;;7.53;1.08;;;;;;;16.16;100.00;99724.06;5054536;28;20108;-50
2023/07/16 01:50:40;;;;;;;5.15;0.70;;;;;;;16.13;100.00;99714.66;5057484;28;20036;-58
2023/07/16 01:53:06;;;;;;;6.57;0.68;;;;;;;16.15;100.00;99717.91;5056586;28;20044;-55
2023/07/16 01:55:31;;;;;;;5.72;0.90;;;;;;;16.25;100.00;99722.59;5050742;28;20035;-53
2023/07/16 01:57:56;;;;;;;5.22;0.88;;;;;;;16.19;100.00;99716.38;5046422;28;20447;-52
2023/07/16 02:00:22;;;;;;;12.73;1.88;;;;;;;16.19;100.00;99718.22;5054206;28;20028;-51
2023/07/16 02:02:47;;;;;;;7.88;0.90;;;;;;;16.07;100.00;99726.34;5065526;28;20098;-50
2023/07/16 02:05:13;;;;;;;8.13;1.13;;;;;;;16.02;100.00;99721.72;5053573;28;20491;-54
2023/07/16 02:07:38;;;;;;;8.05;1.38;;;;;;;16.04;100.00;99742.88;5055200;28;20037;-54
2023/07/16 02:10:03;;;;;;;7.68;1.75;;;;;;;16.02;100.00;99742.31;5057384;28;20036;-54
2023/07/16 02:12:29;;;;;;;9.32;1.73;;;;;;;16.03;100.00;99735.91;5060182;28;20503;-54
2023/07/16 02:14:54;;;;;;;9.15;2.55;;;;;;;16.04;100.00;99734.88;5057091;28;20044;-50
2023/07/16 02:17:19;;;;;;;5.50;0.98;;;;;;;16.00;100.00;99744.41;5040861;28;20029;-51
2023/07/16 02:19:45;;;;;;;6.20;1.35;;;;;;;15.94;100.00;99742.72;5049548;28;20032;-53
2023/07/16 02:22:10;;;;;;;10.73;1.55;;;;;;;15.99;100.00;99742.81;5055345;28;20060;-52
2023/07/16 02:24:35;;;;;;;6.90;0.82;;;;;;;16.04;100.00;99751.72;5061188;28;20127;-56
2023/07/16 02:27:01;;;;;;;4.03;0.60;;;;;;;15.96;100.00;99735.28;5049249;28;20069;-55
2023/07/16 02:29:27;;;;;;;15.70;2.22;;;;;;;15.91;100.00;99744.84;5044120;28;20052;-59
2023/07/16 02:31:52;;;;;;;6.07;1.38;;;;;;;15.95;100.00;99749.69;5040918;28;20607;-51
2023/07/16 02:34:17;;;;;;;6.68;1.95;;;;;;;15.96;100.00;99743.31;5046849;28;20104;-57
2023/07/16 02:36:43;;;;;;;11.98;2.28;;;;;;;15.83;100.00;99747.91;5058518;28;20741;-62
2023/07/16 02:39:08;;;;;;;3.60;1.20;;;;;;;15.77;100.00;99748.88;5051423;28;20040;-48
2023/07/16 02:41:33;;;;;;;15.88;2.13;;;;;;;15.77;100.00;99748.88;5062263;28;20043;-49
2023/07/16 02:44:01;;;;;;;7.75;2.75;;;;;;;15.70;100.00;99749.03;5059106;28;20036;-53
2023/07/16 02:46:26;;;;;;;8.05;1.50;;;;;;;15.64;100.00;99749.16;5052675;28;20029;-55
2023/07/16 02:48:52;;;;;;;13.75;2.58;;;;;;;15.76;100.00;99746.47;5052643;28;20067;-54
2023/07/16 02:51:17;;;;;;;8.98;1.20;;;;;;;15.70;100.00;99756.25;5058158;28;20119;-56
2023/07/16 02:53:42;;;;;;;12.50;1.33;;;;;;;15.72;100.00;99756.84;5048855;28;20041;-51
2023/07/16 02:56:07;;;;;;;4.85;0.50;;;;;;;15.66;100.00;99755.88;5050358;28;20037;-55
2023/07/16 02:58:33;;;;;;;4.10;0.85;;;;;;;15.54;100.00;99760.50;5051283;28;20033;-52
2023/07/16 03:00:58;;;;;;;5.75;1.35;;;;;;;15.57;100.00;99769.91;5056554;28;20056;-55
2023/07/16 03:03:24;;;;;;;14.70;3.28;;;;;;;15.58;100.00;99775.00;5061667;28;20238;-50
2023/07/16 03:05:49;;;;;;;4.18;1.50;;;;;;;15.57;100.00;99776.06;5055671;28;20394;-52
2023/07/16 03:08:14;;;;;;;8.23;2.05;;;;;;;15.52;100.00;99775.97;5038964;28;20170;-53
2023/07/16 03:10:39;;;;;;;5.55;0.70;;;;;;;15.59;100.00;99787.31;5050694;28;20034;-50
2023/07/16 03:13:05;;;;;;;1.80;0.57;;;;;;;15.61;100.00;99787.06;5046846;28;20040;-54
2023/07/16 03:15:30;;;;;;;16.85;3.78;;;;;;;15.61;100.00;99792.41;5056282;28;20040;-53
2023/07/16 03:17:55;;;;;;;6.07;1.70;;;;;;;15.62;100.00;99796.72;5056108;28;20428;-54
2023/07/16 03:20:21;;;;;;;5.85;1.52;;;;;;;15.65;100.00;99794.34;5047493;28;20547;-54
2023/07/16 03:22:46;;;;;;;16.13;1.10;;;;;;;15.67;100.00;99799.47;5058656;28;20111;-51
2023/07/16 03:25:11;;;;;;;7.47;1.55;;;;;;;15.66;100.00;99790.63;5046836;28;20035;-55
2023/07/16 03:27:37;;;;;;;6.68;1.67;;;;;;;15.61;100.00;99797.75;5050010;28;20390;-60
2023/07/16 03:30:03;;;;;;;8.63;1.95;;;;;;;15.64;100.00;99803.44;5051673;28;20028;-52
2023/07/16 03:32:29;;;;;;;6.75;1.77;;;;;;;15.67;100.00;99802.94;5044213;28;20469;-55
2023/07/16 03:34:54;;;;;;;9.73;2.17;;;;;;;15.66;100.00;99800.50;5050589;28;20047;-53
2023/07/16 03:37:19;;;;;;;11.05;1.63;;;;;;;15.68;100.00;99817.13;5046373;28;20484;-59
2023/07/16 03:39:45;;;;;;;8.20;1.13;;;;;;;15.62;100.00;99820.75;5051262;28;20027;-49
2023/07/16 03:42:10;;;;;;;5.55;0.73;;;;;;;15.59;100.00;99826.56;5059957;28;20036;-51
2023/07/16 03:44:35;;;;;;;12.30;1.65;;;;;;;15.55;100.00;99822.75;5039087;28;20039;-64
2023/07/16 03:47:01;;;;;;;9.82;2.40;;;;;;;15.57;100.00;99834.03;5048017;28;20880;-56
2023/07/16 03:49:26;;;;;;;7.45;1.13;;;;;;;15.61;100.00;99832.47;5061272;28;20068;-51
2023/07/16 03:51:51;;;;;;;12.82;1.63;;;;;;;15.56;100.00;99830.53;5056391;28;20419;-63
2023/07/16 03:54:16;;;;;;;6.53;1.70;;;;;;;15.46;100.00;99830.34;5040854;28;20550;-62
2023/07/16 03:56:42;;;;;;;9.73;1.70;;;;;;;15.47;100.00;99845.34;5054819;28;20041;-50
2023/07/16 03:59:07;;;;;;;4.93;0.52;;;;;;;15.51;100.00;99840.31;5049830;28;20049;-48
2023/07/16 04:01:32;;;;;;;12.25;1.55;;;;;;;15.41;100.00;99848.94;5056364;28;20548;-51
2023/07/16 04:03:58;;;;;;;7.45;2.45;;;;;;;15.39;100.00;99849.19;5045421;28;20041;-50
2023/07/16 04:06:23;;;;;;;7.97;1.15;;;;;;;15.41;100.00;99851.59;5045451;28;20017;-54
2023/07/16 04:08:48;;;;;;;8.02;1.63;;;;;;;15.35;100.00;99855.25;5055325;28;20467;-52
2023/07/16 04:11:14;;;;;;;9.00;2.30;;;;;;;15.27;100.00;99857.22;5053972;28;20051;-64
2023/07/16 04:13:39;;;;;;;5.57;1.30;;;;;;;15.36;100.00;99865.69;5046794;28;20031;-50
2023/07/16 04:16:04;;;;;;;13.32;1.95;;;;;;;15.33;100.00;99868.81;5051537;28;20684;-56
2023/07/16 04:18:30;;;;;;;9.57;0.70;;;;;;;15.36;100.00;99873.72;5044505;28;20043;-50
2023/07/16 04:20:55;;;;;;;5.30;1.40;;;;;;;15.31;100.00;99878.94;5050322;28;20025;-50
2023/07/16 04:23:20;;;;;;;10.25;1.15;;;;;;;15.31;100.00;99872.78;5048310;28;20123;-51
2023/07/16 04:25:46;;;;;;;5.63;1.52;;;;;;;15.26;100.00;99882.31;5031576;28;20032;-50
2023/07/16 04:28:12;;;;;;;4.82;1.63;;;;;;;15.25;100.00;99879.88;5046366;28;20116;-49
2023/07/16 04:30:38;;;;;;;16.17;1.95;;;;;;;15.20;100.00;99882.44;5060809;28;20043;-51
2023/07/16 04:33:04;;;;;;;10.75;2.03;;;;;;;15.21;100.00;99886.75;5045311;28;20135;-47
2023/07/16 04:35:29;;;;;;;13.27;1.15;;;;;;;15.11;100.00;99883.88;5045302;28;20107;-54
2023/07/16 04:37:55;;;;;;;6.60;1.23;;;;;;;15.06;100.00;99892.59;5050683;28;20733;-50
2023/07/16 04:40:20;;;;;;;8.77;1.90;;;;;;;14.98;100.00;99890.28;5049573;28;20498;-58
2023/07/16 04:42:45;;;;;;;4.25;1.60;;;;;;;14.90;100.00;99877.28;5048844;28;20028;-48
2023/07/16 04:45:11;;;;;;;13.00;2.83;;;;;;;14.75;100.00;99899.91;5056784;28;20040;-48
2023/07/16 04:47:36;;;;;;;3.03;0.93;;;;;;;14.74;100.00;99906.31;5038133;28;20045;-51
2023/07/16 04:50:02;;;;;;;5.82;0.77;;;;;;;14.72;100.00;99910.25;5043607;28;20619;-49
2023/07/16 04:52:27;;;;;;;5.10;1.48;;;;;;;14.59;100.00;99909.44;5051237;28;20513;-50
2023/07/16 04:54:52;;;;;;;9.65;1.48;;;;;;;14.58;100.00;99917.66;5049247;28;20028;-56
2023/07/16 04:57:18;;;;;;;9.32;1.38;;;;;;;14.54;100.00;99924.50;5058765;28;20028;-47
2023/07/16 04:59:43;;;;;;;6.70;1.30;;;;;;;14.51;100.00;99925.75;5053540;28;20020;-52
2023/07/16 05:02:08;;;;;;;8.77;1.25;;;;;;;14.52;100.00;99923.88;5043134;28;20135;-54
2023/07/16 05:04:35;;;;;;;7.05;0.68;;;;;;;14.44;100.00;99935.72;5057474;28;20074;-55
2023/07/16 05:07:03;;;;;;;12.30;2.55;;;;;;;14.41;100.00;99936.16;5054265;28;20028;-52
2023/07/16 05:09:29;;;;;;;9.15;1.27;;;;;;;14.44;100.00;99943.72;5055152;28;20108;-52
2023/07/16 05:11:54;;;;;;;6.85;1.08;;;;;;;14.42;100.00;99937.78;5053796;28;20119;-53
2023/07/16 05:14:19;;;;;;;8.82;1.58;;;;;;;14.47;100.00;99945.91;5051803;28;20048;-51
2023/07/16 05:16:45;;;;;;;19.27;2.40;;;;;;;14.44;100.00;99940.22;5061095;28;20032;-53
2023/07/16 05:19:10;;;;;;;8.98;1.38;;;;;;;14.41;100.00;99949.50;5052722;28;20448;-51
2023/07/16 05:21:35;;;;;;;6.97;1.73;;;;;;;14.37;100.00;99943.00;5052483;28;20045;-48
2023/07/16 05:24:01;;;;;;;8.48;1.38;;;;;;;14.52;100.00;99951.38;5055260;28;20029;-51
2023/07/16 05:26:26;;;;;;;5.35;0.52;;;;;;;14.54;100.00;99959.19;5059450;28;20067;-52
2023/07/16 05:28:51;;;;;;;14.45;2.75;;;;;;;14.54;100.00;99965.34;5054461;28;20079;-50
2023/07/16 05:31:17;;;;;;;10.00;1.55;;;;;;;14.74;100.00;99961.50;5055358;28;20037;-48
2023/07/16 05:33:42;;;;;;;6.18;1.63;;;;;;;14.85;100.00;99963.41;5064009;28;20040;-50
2023/07/16 05:36:07;;;;;;;11.50;2.63;;;;;;;14.90;100.00;99963.50;5054468;28;20151;-59
2023/07/16 05:38:33;;;;;;;9.70;1.48;;;;;;;14.79;100.00;99966.97;5046887;28;20484;-49
2023/07/16 05:41:04;;;;;;;13.73;1.55;;;;;;;14.71;100.00;99968.13;5056832;28;20493;-49
2023/07/16 05:43:30;;;;;;;10.82;2.40;;;;;;;14.87;100.00;99960.47;5049394;28;20045;-51
2023/07/16 05:45:56;;;;;;;8.68;0.85;;;;;;;15.00;100.00;99958.41;5055074;28;20036;-54
2023/07/16 05:48:21;;;;;;;7.00;0.50;;;;;;;14.94;100.00;99972.66;5054036;28;20029;-49
2023/07/16 05:50:46;;;;;;;5.28;1.33;;;;;;;14.93;100.00;99967.56;5054983;28;20074;-52
2023/07/16 05:53:13;;;;;;;5.82;1.23;;;;;;;15.05;100.00;99981.75;5051852;28;20041;-52
2023/07/16 05:55:42;;;;;;;11.88;1.63;;;;;;;15.10;100.00;99981.84;5059561;28;20036;-53
2023/07/16 05:58:08;;;;;;;14.80;2.10;;;;;;;15.17;100.00;99979.06;5047547;28;20044;-55
2023/07/16 06:00:34;;;;;;;3.45;0.63;;;;;;;15.11;100.00;99974.66;5051113;28;20372;-59
2023/07/16 06:03:01;;;;;;;7.90;1.27;;;;;;;15.08;100.00;99983.13;5049408;28;20550;-54
2023/07/16 06:05:26;;;;;;;5.70;2.05;;;;;;;15.13;100.00;99991.25;5050189;28;20090;-51
2023/07/16 06:07:52;;;;;;;4.50;1.27;;;;;;;15.25;100.00;99987.50;5037717;28;20029;-51
2023/07/16 06:10:17;;;;;;;5.60;0.57;;;;;;;15.28;100.00;99988.91;5048637;28;20505;-53
2023/07/16 06:12:42;;;;;;;4.03;0.43;;;;;;;15.42;100.00;99990.28;5049789;28;20032;-49
2023/07/16 06:15:08;;;;;;;15.52;1.63;;;;;;;15.60;100.00;99999.22;5055796;28;20043;-55
2023/07/16 06:17:34;;;;;;;7.80;0.75;;;;;;;15.61;100.00;99993.63;5052991;28;20033;-50
2023/07/16 06:19:59;;;;;;;8.05;0.77;;;;;;;15.69;100.00;100003.16;5051119;28;20024;-49
2023/07/16 06:22:24;;;;;;;10.93;1.50;;;;;;;15.79;100.00;100008.72;5054988;28;20028;-52
2023/07/16 06:24:50;;;;;;;8.82;1.58;;;;;;;15.80;100.00;100012.19;5055823;28;20037;-53
2023/07/16 06:27:15;;;;;;;10.65;1.25;;;;;;;15.82;100.00;100015.44;5044415;28;20381;-50
2023/07/16 06:29:40;;;;;;;6.18;1.50;;;;;;;15.87;100.00;100026.25;5042856;28;20082;-61
2023/07/16 06:32:06;;;;;;;7.45;2.95;;;;;;;15.91;100.00;100027.41;5039906;28;20069;-49
2023/07/16 06:34:32;;;;;;;3.85;0.90;;;;;;;15.96;100.00;100013.34;5058229;28;20086;-52
2023/07/16 06:36:57;;;;;;;4.80;2.47;;;;;;;16.10;100.00;100020.81;5047008;28;20039;-52
2023/07/16 06:39:22;;;;;;;5.60;1.23;;;;;;;16.18;100.00;100030.31;5044314;28;20560;-56
2023/07/16 06:41:48;;;;;;;8.13;0.80;;;;;;;16.21;100.00;100021.84;5057517;28;20032;-49
2023/07/16 06:44:13;;;;;;;2.53;0.70;;;;;;;16.20;100.00;100024.75;5039347;28;20034;-51
2023/07/16 06:46:38;;;;;;;9.93;0.52;;;;;;;16.37;100.00;100022.94;5044416;28;20665;-66
2023/07/16 06:49:06;;;;;;;3.38;1.02;;;;;;;16.46;100.00;100028.69;5055419;28;20060;-52
2023/07/16 06:51:32;;;;;;;10.23;1.13;;;;;;;16.50;100.00;100037.88;5052156;28;20052;-57
2023/07/16 06:53:57;;;;;;;10.80;1.45;;;;;;;16.51;100.00;100028.78;5050185;28;20036;-52
2023/07/16 06:56:23;;;;;;;4.55;1.17;;;;;;;16.65;100.00;100043.50;5048511;28;20036;-52
2023/07/16 06:58:48;;;;;;;9.13;1.90;;;;;;;16.75;100.00;100032.97;5051845;28;20098;-54
2023/07/16 07:01:14;;;;;;;5.18;0.57;;;;;;;16.66;100.00;100034.41;5036494;28;20025;-52
2023/07/16 07:03:39;;;;;;;6.63;1.42;;;;;;;16.69;100.00;100044.63;5053322;28;20025;-59
2023/07/16 07:06:04;;;;;;;20.83;1.15;;;;;;;16.63;100.00;100058.16;5051942;28;20025;-48
2023/07/16 07:08:30;;;;;;;2.60;0.35;;;;;;;16.56;100.00;100067.16;5046035;28;20387;-52
2023/07/16 07:10:56;;;;;;;6.15;1.17;;;;;;;16.50;100.00;100061.97;5055883;28;20060;-53
2023/07/16 07:13:21;;;;;;;4.75;0.65;;;;;;;16.64;100.00;100065.94;5049734;28;20056;-51
2023/07/16 07:15:46;;;;;;;6.25;1.00;;;;;;;16.65;100.00;100072.94;5050979;28;20040;-54
2023/07/16 07:18:12;;;;;;;7.88;1.58;;;;;;;16.85;100.00;100077.84;5053700;28;20363;-52
2023/07/16 07:20:39;;;;;;;5.97;1.02;;;;;;;16.90;100.00;100072.56;5053762;28;20056;-53
2023/07/16 07:23:05;;;;;;;6.32;1.20;;;;;;;17.04;100.00;100067.72;5056890;28;20036;-52
2023/07/16 07:25:30;;;;;;;3.70;0.47;;;;;;;17.20;100.00;100066.09;5057437;28;20047;-52
2023/07/16 07:27:56;;;;;;;5.45;1.20;;;;;;;17.26;100.00;100075.81;5060293;28;20024;-53
2023/07/16 07:30:21;;;;;;;4.75;0.98;;;;;;;17.50;100.00;100086.34;5052869;28;20532;-52
2023/07/16 07:32:46;;;;;;;5.60;1.05;;;;;;;17.57;100.00;100084.31;5051581;28;20046;-54
2023/07/16 07:35:12;;;;;;;7.85;0.80;;;;;;;17.56;100.00;100075.47;5056588;28;20028;-52
2023/07/16 07:37:37;;;;;;;2.55;0.68;;;;;;;17.43;100.00;100086.53;5042504;28;20378;-64
2023/07/16 07:40:03;;;;;;;4.60;0.43;;;;;;;17.41;100.00;100094.00;5046003;28;20032;-53
2023/07/16 07:42:29;;;;;;;6.75;1.52;;;;;;;17.38;100.00;100094.50;5055399;28;20038;-52
2023/07/16 07:44:55;;;;;;;11.25;1.23;;;;;;;17.41;100.00;100105.53;5052945;28;20025;-60
2023/07/16 07:47:20;;;;;;;4.78;0.52;;;;;;;17.41;100.00;100102.03;5027898;28;20037;-54
2023/07/16 07:49:46;;;;;;;6.97;1.58;;;;;;;17.37;100.00;100104.41;5047052;28;20143;-51
2023/07/16 07:52:11;;;;;;;10.38;1.85;;;;;;;17.46;100.00;100099.44;5051415;28;20887;-59
2023/07/16 07:54:36;;;;;;;8.55;1.52;;;;;;;17.49;100.00;100101.63;5059099;28;20090;-57
2023/07/16 07:57:03;;;;;;;9.80;1.48;;;;;;;17.61;100.00;100101.53;5058109;28;20036;-50
2023/07/16 07:59:29;;;;;;;9.48;1.27;;;;;;;17.72;100.00;100097.94;5050130;28;20033;-58
2023/07/16 08:01:55;;;;;;;9.73;1.33;;;;;;;17.91;100.00;100092.28;5053500;28;20377;-55
2023/07/16 08:04:20;;;;;;;7.20;0.57;;;;;;;18.04;100.00;100086.56;5058096;28;20064;-52
2023/07/16 08:06:45;;;;;;;7.00;0.50;;;;;;;18.20;100.00;100084.84;5046233;28;20466;-51
2023/07/16 08:09:11;;;;;;;8.65;1.70;;;;;;;18.34;100.00;100096.03;5050883;28;20650;-48
2023/07/16 08:11:36;;;;;;;3.60;0.40;;;;;;;18.41;100.00;100102.84;5054049;28;20029;-51
2023/07/16 08:14:01;;;;;;;4.53;0.77;;;;;;;18.58;100.00;100101.91;5053024;28;20029;-54
2023/07/16 08:16:27;;;;;;;5.65;0.77;;;;;;;18.54;100.00;100107.00;5047698;28;20151;-50
2023/07/16 08:18:52;;;;;;;6.28;0.95;;;;;;;18.51;100.00;100108.31;5050559;28;20179;-50
2023/07/16 08:21:19;;;;;;;7.40;1.08;;;;;;;18.60;100.00;100107.84;5054787;28;20059;-52
2023/07/16 08:23:48;;;;;;;9.00;1.75;;;;;;;18.80;100.00;100107.28;5059122;28;20039;-48
2023/07/16 08:26:14;;;;;;;8.05;0.55;;;;;;;18.81;100.00;100111.56;5039798;28;20064;-49
2023/07/16 08:28:39;;;;;;;4.65;0.88;;;;;;;18.67;100.00;100127.25;5050849;28;20036;-53
2023/07/16 08:31:04;;;;;;;4.10;0.55;;;;;;;18.72;100.00;100130.81;5052400;28;20044;-51
2023/07/16 08:33:30;;;;;;;4.55;0.65;;;;;;;18.87;100.00;100127.50;5054312;28;20043;-62
2023/07/16 08:35:55;;;;;;;2.67;0.57;;;;;;;19.13;100.00;100131.22;5046128;28;20114;-56
2023/07/16 08:38:20;;;;;;;4.30;0.68;;;;;;;19.43;100.00;100129.81;5060462;28;20032;-52
2023/07/16 08:40:48;;;;;;;4.07;0.50;;;;;;;19.57;100.00;100114.88;5050367;28;20056;-51
2023/07/16 08:43:16;;;;;;;6.13;0.85;;;;;;;19.66;100.00;100122.44;5050171;28;20040;-59
2023/07/16 08:45:44;;;;;;;5.25;1.55;;;;;;;19.82;100.00;100127.66;5047328;28;20151;-51
2023/07/16 08:48:11;;;;;;;8.48;0.77;;;;;;;20.00;100.00;100129.09;5056352;28;20034;-53
2023/07/16 08:50:37;;;;;;;4.57;0.57;;;;;;;20.29;100.00;100133.28;5048809;28;20053;-59
2023/07/16 08:53:05;;;;;;;6.60;1.30;;;;;;;20.43;100.00;100129.81;5048865;28;20039;-51
2023/07/16 08:55:30;;;;;;;3.08;0.47;;;;;;;20.27;100.00;100133.53;5052679;28;20024;-53
2023/07/16 08:57:57;;;;;;;4.43;0.40;;;;;;;19.95;100.00;100147.13;5050625;28;20071;-58
2023/07/16 09:00:25;;;;;;;5.00;0.30;;;;;;;19.88;100.00;100143.84;5046173;28;20032;-60
2023/07/16 09:02:52;;;;;;;6.88;0.93;;;;;;;19.89;100.00;100129.34;5056369;28;20036;-55
2023/07/16 09:05:20;;;;;;;4.32;0.32;;;;;;;19.97;100.00;100137.72;5043083;28;20032;-61
2023/07/16 09:07:45;;;;;;;5.72;0.50;;;;;;;20.38;100.00;100131.69;5047403;28;20025;-54
2023/07/16 09:10:11;;;;;;;5.10;1.27;;;;;;;20.34;100.00;100130.59;5043231;28;20476;-59
2023/07/16 09:12:45;;;;;;;3.85;0.35;;;;;;;20.34;100.00;100135.97;5047709;28;20091;-56
2023/07/16 09:15:21;;;;;;;2.47;0.25;;;;;;;20.48;100.00;100154.06;5047127;28;20033;-50
2023/07/16 09:17:49;;;;;;;2.95;0.22;;;;;;;20.74;100.00;100145.28;5048020;28;20045;-55
2023/07/16 09:20:16;;;;;;;3.38;0.22;;;;;;;21.04;100.00;100139.13;5047879;28;20076;-57
2023/07/16 09:22:42;;;;;;;8.07;0.43;;;;;;;21.21;100.00;100146.94;5050112;28;20094;-61
2023/07/16 09:25:09;;;;;;;4.45;1.38;;;;;;;21.11;100.00;100143.16;5043451;28;20033;-56
2023/07/16 09:27:34;;;;;;;1.52;0.47;;;;;;;21.19;100.00;100143.72;5046367;28;20043;-63
2023/07/16 09:30:02;;;;;;;5.13;0.43;;;;;;;20.91;100.00;100146.66;5050717;28;20024;-53
2023/07/16 09:32:40;;;;;;;0.85;0.10;;;;;;;21.03;100.00;100150.97;5043145;28;20041;-55
2023/07/16 09:35:16;;;;;;;2.65;0.95;;;;;;;21.31;100.00;100144.25;5043370;28;20045;-61
2023/07/16 09:37:41;;;;;;;4.00;0.30;;;;;;;21.61;100.00;100156.09;5033149;28;20082;-56
2023/07/16 09:40:09;;;;;;;3.65;0.40;;;;;;;21.58;100.00;100156.66;5048891;28;20066;-61
2023/07/16 09:42:39;;;;;;;3.47;0.52;;;;;;;21.47;100.00;100150.47;5053460;28;20028;-52
2023/07/16 09:45:16;;;;;;;6.72;0.40;;;;;;;21.44;100.00;100157.22;5054592;28;21486;-50
2023/07/16 09:47:42;;;;;;;6.57;0.63;;;;;;;21.33;100.00;100161.78;5050383;28;20041;-63
2023/07/16 09:50:08;;;;;;;3.15;0.30;;;;;;;21.25;100.00;100158.81;5055007;28;20040;-57
2023/07/16 09:52:34;;;;;;;1.85;0.30;;;;;;;21.54;100.00;100167.19;5056253;28;20115;-53
2023/07/16 09:55:02;;;;;;;4.20;0.47;;;;;;;21.40;100.00;100166.13;5057826;28;20032;-51
2023/07/16 09:57:30;;;;;;;1.67;0.30;;;;;;;21.00;100.00;100173.88;5044965;28;20031;-57
2023/07/16 10:00:00;;;;;;;2.50;0.25;;;;;;;21.21;100.00;100165.81;5050557;28;20029;-50
2023/07/16 10:02:25;;;;;;;4.88;0.17;;;;;;;21.58;100.00;100167.44;5056422;28;20048;-61
2023/07/16 10:04:52;;;;;;;4.30;0.73;;;;;;;21.76;100.00;100183.06;5056364;28;20036;-57
2023/07/16 10:07:22;;;;;;;11.73;0.65;;;;;;;21.92;100.00;100179.28;5055915;28;21202;-53
2023/07/16 10:09:54;;;;;;;3.70;0.63;;;;;;;21.98;100.00;100172.78;5056025;28;20814;-61
2023/07/16 10:12:20;;;;;;;2.28;0.25;;;;;;;22.16;100.00;100168.66;5057532;28;20127;-58
2023/07/16 10:14:47;;;;;;;5.43;0.32;;;;;;;22.42;99.15;100172.09;5054682;28;20090;-60
2023/07/16 10:17:20;;;;;;;6.38;0.22;;;;;;;22.58;99.43;100166.63;5055451;28;20029;-58
2023/07/16 10:19:59;;;;;;;0.75;0.20;;;;;;;22.59;99.14;100169.06;5057474;28;21544;-60
2023/07/16 10:22:37;;;;;;;1.60;0.30;;;;;;;22.60;97.63;100180.66;5048522;28;20028;-55
2023/07/16 10:25:06;;;;;;;1.52;0.30;;;;;;;22.83;99.32;100190.81;5058888;28;20895;-51
2023/07/16 10:27:33;;;;;;;3.00;0.47;;;;;;;22.64;97.16;100181.75;5056601;28;20443;-56
2023/07/16 10:30:02;;;;;;;3.88;0.38;;;;;;;22.23;97.00;100173.81;5056290;28;20036;-64
2023/07/16 10:32:28;;;;;;;4.13;0.40;;;;;;;22.07;96.13;100193.81;5055543;28;20055;-53
2023/07/16 10:34:54;;;;;;;4.43;0.50;;;;;;;22.04;96.08;100192.47;5059587;28;20036;-55
2023/07/16 10:37:20;;;;;;;1.88;0.30;;;;;;;22.11;94.99;100186.78;5061941;28;20043;-58
2023/07/16 10:39:47;;;;;;;1.45;0.15;;;;;;;22.10;96.28;100190.56;5056649;28;20236;-55
2023/07/16 10:42:13;;;;;;;2.50;0.20;;;;;;;22.24;95.33;100207.81;5059386;28;20033;-56
2023/07/16 10:44:39;;;;;;;5.55;0.55;;;;;;;22.23;91.52;100195.41;5058366;28;20033;-51
2023/07/16 10:47:05;;;;;;;2.00;1.08;;;;;;;22.32;87.51;100193.75;5055464;28;20115;-59
2023/07/16 10:49:30;;;;;;;0.60;0.47;;;;;;;22.33;90.01;100192.69;5059596;28;20037;-52
2023/07/16 10:51:58;;;;;;;3.38;0.47;;;;;;;22.62;90.72;100192.00;5058289;28;20036;-57
2023/07/16 10:54:24;;;;;;;4.50;0.40;;;;;;;22.76;89.08;100190.28;5056280;28;20142;-59
2023/07/16 10:56:51;;;;;;;1.77;0.50;;;;;;;22.86;84.59;100192.94;5058522;28;20043;-66
2023/07/16 10:59:17;;;;;;;3.13;0.10;;;;;;;22.60;88.72;100191.47;5058279;28;20032;-50
2023/07/16 11:01:43;;;;;;;0.82;0.28;;;;;;;22.49;87.16;100198.03;5059520;28;20146;-55
2023/07/16 11:04:08;;;;;;;2.22;0.30;;;;;;;22.52;88.46;100197.47;5058928;28;20081;-51
2023/07/16 11:06:35;;;;;;;3.25;0.20;;;;;;;22.55;87.60;100207.72;5055933;28;20882;-51
2023/07/16 11:09:08;;;;;;;3.33;0.17;;;;;;;22.20;84.68;100202.19;5055398;28;20068;-49
2023/07/16 11:11:33;;;;;;;1.70;0.20;;;;;;;22.11;87.08;100198.38;5050790;28;20626;-55
2023/07/16 11:13:59;;;;;;;4.65;0.30;;;;;;;22.21;88.89;100203.78;5053775;28;20044;-55
2023/07/16 11:16:24;;;;;;;1.80;0.20;;;;;;;22.33;84.65;100202.66;5056930;28;20372;-58
2023/07/16 11:18:51;;;;;;;4.38;0.63;;;;;;;22.56;82.86;100206.63;5049975;28;20370;-60